createdAt,value
2023-05-07T00:00:34.817Z,4.00
2023-05-07T00:01:38.570Z,4.00
2023-05-07T00:02:40.110Z,3.00
2023-05-07T00:03:42.907Z,3.00
2023-05-07T00:04:45.203Z,4.00
2023-05-07T00:05:47.719Z,6.00
2023-05-07T00:06:49.138Z,4.25
2023-05-07T00:07:53.550Z,4.25
2023-05-07T00:08:54.986Z,5.50
2023-05-07T00:09:57.642Z,4.00
2023-05-07T00:10:59.040Z,6.00
2023-05-07T00:12:01.425Z,7.00
2023-05-07T00:13:02.871Z,5.25
2023-05-07T00:14:05.571Z,6.50
2023-05-07T00:15:07.791Z,6.75
2023-05-07T00:16:10.306Z,6.00
2023-05-07T00:17:13.101Z,6.50
2023-05-07T00:18:15.589Z,7.00
2023-05-07T00:19:17.129Z,7.00
2023-05-07T00:20:19.529Z,8.00
2023-05-07T00:21:22.433Z,7.00
2023-05-07T00:22:24.852Z,6.00
2023-05-07T00:23:26.256Z,8.00
2023-05-07T00:24:28.801Z,6.25
2023-05-07T00:25:30.256Z,7.00
2023-05-07T00:26:32.700Z,6.75
2023-05-07T00:27:34.135Z,4.75
2023-05-07T00:28:36.521Z,7.00
2023-05-07T00:29:38.046Z,6.00
2023-05-07T00:30:40.460Z,7.00
2023-05-07T00:31:41.908Z,6.00
2023-05-07T00:32:46.406Z,6.75
2023-05-07T00:33:47.854Z,6.00
2023-05-07T00:34:51.864Z,7.00
2023-05-07T00:35:53.306Z,6.00
2023-05-07T00:36:55.677Z,7.00
2023-05-07T00:37:57.114Z,6.75
2023-05-07T00:39:00.903Z,7.00
2023-05-07T00:40:05.606Z,7.75
2023-05-07T00:41:08.293Z,8.00
2023-05-07T00:42:09.804Z,8.00
2023-05-07T00:43:13.569Z,8.75
2023-05-07T00:44:15.316Z,7.25
2023-05-07T00:45:18.022Z,8.25
2023-05-07T00:46:19.636Z,9.75
2023-05-07T00:47:22.139Z,9.75
2023-05-07T00:48:25.423Z,8.00
2023-05-07T00:49:27.996Z,6.75
2023-05-07T00:50:29.601Z,8.00
2023-05-07T00:51:31.994Z,8.00
2023-05-07T00:52:33.426Z,7.00
2023-05-07T00:53:35.875Z,6.00
2023-05-07T00:54:37.291Z,6.00
2023-05-07T00:55:39.775Z,6.00
2023-05-07T00:56:41.432Z,6.75
2023-05-07T00:57:43.821Z,7.00
2023-05-07T00:58:45.261Z,7.00
2023-05-07T00:59:47.686Z,6.00
2023-05-07T01:00:49.202Z,7.50
2023-05-07T01:01:51.737Z,6.25
2023-05-07T01:02:53.292Z,7.75
2023-05-07T01:03:58.620Z,4.75
2023-05-07T01:05:00.825Z,5.50
2023-05-07T01:06:03.853Z,6.00
2023-05-07T01:07:06.140Z,5.25
2023-05-07T01:08:08.517Z,6.00
2023-05-07T01:09:10.165Z,6.00
2023-05-07T01:10:12.788Z,6.00
2023-05-07T01:11:14.678Z,6.25
2023-05-07T01:12:17.090Z,7.75
2023-05-07T01:13:19.020Z,6.25
2023-05-07T01:14:21.579Z,7.00
2023-05-07T01:15:23.011Z,4.50
2023-05-07T01:16:25.616Z,6.00
2023-05-07T01:17:27.127Z,6.75
2023-05-07T01:18:30.918Z,7.00
2023-05-07T01:19:33.695Z,6.50
2023-05-07T01:20:36.061Z,7.00
2023-05-07T01:21:38.089Z,6.00
2023-05-07T01:22:41.890Z,6.00
2023-05-07T01:23:43.303Z,6.00
2023-05-07T01:24:45.720Z,6.00
2023-05-07T01:25:51.887Z,6.00
2023-05-07T01:26:54.958Z,6.00
2023-05-07T01:27:56.370Z,6.00
2023-05-07T01:28:58.766Z,7.00
2023-05-07T01:30:00.264Z,6.50
2023-05-07T01:31:03.543Z,6.00
2023-05-07T01:32:05.401Z,7.00
2023-05-07T01:33:08.813Z,5.50
2023-05-07T01:34:10.314Z,6.00
2023-05-07T01:35:13.288Z,6.00
2023-05-07T01:36:14.737Z,6.00
2023-05-07T01:37:17.189Z,6.00
2023-05-07T01:38:20.042Z,6.00
2023-05-07T01:39:22.440Z,4.75
2023-05-07T01:40:23.908Z,6.00
2023-05-07T01:41:26.581Z,6.00
2023-05-07T01:42:28.062Z,6.00
2023-05-07T01:43:30.494Z,4.75
2023-05-07T01:44:31.911Z,4.75
2023-05-07T01:45:34.302Z,5.75
2023-05-07T01:46:35.741Z,7.00
2023-05-07T01:47:38.243Z,6.00
2023-05-07T01:48:39.702Z,5.25
2023-05-07T01:49:42.109Z,6.00
2023-05-07T01:50:43.537Z,6.00
2023-05-07T01:51:47.856Z,6.25
2023-05-07T01:52:50.462Z,6.00
2023-05-07T01:53:54.325Z,6.00
2023-05-07T01:54:55.735Z,6.00
2023-05-07T01:55:58.133Z,6.00
2023-05-07T01:56:59.584Z,4.75
2023-05-07T01:58:02.123Z,6.00
2023-05-07T01:59:03.546Z,6.00
2023-05-07T02:00:06.550Z,7.00
2023-05-07T02:01:07.962Z,6.25
2023-05-07T02:02:10.426Z,6.00
2023-05-07T02:03:12.341Z,6.00
2023-05-07T02:04:14.897Z,6.50
2023-05-07T02:05:16.428Z,6.00
2023-05-07T02:06:18.844Z,6.00
2023-05-07T02:07:20.256Z,4.75
2023-05-07T02:08:23.095Z,3.50
2023-05-07T02:09:26.071Z,6.25
2023-05-07T02:10:28.487Z,6.00
2023-05-07T02:11:29.892Z,5.25
2023-05-07T02:12:32.286Z,7.00
2023-05-07T02:13:34.031Z,6.00
2023-05-07T02:14:36.416Z,6.00
2023-05-07T02:15:37.922Z,5.00
2023-05-07T02:16:40.386Z,5.00
2023-05-07T02:17:56.785Z,4.75
2023-05-07T02:18:59.295Z,5.00
2023-05-07T02:20:00.811Z,5.50
2023-05-07T02:21:03.236Z,6.00
2023-05-07T02:22:04.650Z,6.00
2023-05-07T02:23:07.065Z,5.50
2023-05-07T02:24:08.724Z,7.00
2023-05-07T02:25:12.480Z,6.00
2023-05-07T02:26:13.887Z,6.00
2023-05-07T02:27:16.280Z,7.00
2023-05-07T02:28:17.714Z,6.75
2023-05-07T02:29:20.145Z,4.75
2023-05-07T02:30:22.339Z,6.00
2023-05-07T02:31:24.831Z,6.00
2023-05-07T02:32:26.344Z,4.25
2023-05-07T02:33:28.775Z,4.75
2023-05-07T02:34:30.315Z,5.00
2023-05-07T02:35:32.890Z,5.50
2023-05-07T02:36:34.305Z,6.00
2023-05-07T02:37:36.961Z,7.00
2023-05-07T02:38:38.474Z,6.00
2023-05-07T02:39:40.927Z,6.00
2023-05-07T02:40:43.788Z,6.00
2023-05-07T02:41:46.195Z,6.00
2023-05-07T02:42:47.720Z,6.00
2023-05-07T02:43:50.106Z,6.00
2023-05-07T02:44:51.610Z,5.25
2023-05-07T02:46:01.996Z,5.75
2023-05-07T02:47:04.889Z,5.75
2023-05-07T02:48:07.703Z,5.75
2023-05-07T02:49:09.256Z,7.00
2023-05-07T02:50:12.234Z,6.00
2023-05-07T02:51:13.878Z,6.00
2023-05-07T02:52:16.313Z,6.00
2023-05-07T02:53:17.751Z,4.50
2023-05-07T02:54:20.154Z,5.50
2023-05-07T02:55:21.709Z,4.50
2023-05-07T02:56:27.390Z,4.75
2023-05-07T02:57:28.810Z,6.00
2023-05-07T02:58:31.272Z,4.75
2023-05-07T02:59:32.719Z,3.25
2023-05-07T03:00:35.175Z,6.00
2023-05-07T03:01:36.622Z,4.75
2023-05-07T03:02:39.062Z,4.75
2023-05-07T03:03:40.532Z,4.50
2023-05-07T03:04:43.210Z,4.75
2023-05-07T03:05:44.708Z,6.00
2023-05-07T03:06:47.079Z,4.50
2023-05-07T03:07:49.482Z,5.75
2023-05-07T03:08:50.915Z,5.00
2023-05-07T03:09:53.315Z,6.00
2023-05-07T03:10:54.832Z,5.00
2023-05-07T03:11:58.572Z,5.50
2023-05-07T03:13:00.026Z,4.75
2023-05-07T03:14:02.478Z,4.75
2023-05-07T03:15:04.214Z,4.75
2023-05-07T03:16:07.031Z,5.50
2023-05-07T03:17:08.556Z,4.75
2023-05-07T03:18:11.490Z,4.75
2023-05-07T03:19:13.010Z,3.50
2023-05-07T03:20:15.749Z,3.00
2023-05-07T03:21:17.411Z,6.00
2023-05-07T03:22:19.805Z,4.75
2023-05-07T03:23:23.131Z,5.75
2023-05-07T03:24:27.115Z,5.75
2023-05-07T03:25:28.537Z,5.00
2023-05-07T03:26:31.040Z,3.50
2023-05-07T03:27:33.781Z,4.75
2023-05-07T03:28:36.216Z,4.75
2023-05-07T03:29:37.716Z,4.75
2023-05-07T03:30:40.118Z,3.75
2023-05-07T03:31:41.832Z,3.00
2023-05-07T03:32:44.373Z,4.75
2023-05-07T03:33:52.405Z,5.00
2023-05-07T03:34:54.798Z,3.00
2023-05-07T03:35:56.237Z,5.00
2023-05-07T03:36:58.740Z,5.00
2023-05-07T03:38:00.162Z,2.00
2023-05-07T03:39:02.577Z,3.50
2023-05-07T03:40:04.812Z,3.50
2023-05-07T03:41:07.193Z,3.00
2023-05-07T03:42:08.739Z,3.00
2023-05-07T03:43:12.463Z,3.00
2023-05-07T03:44:13.876Z,3.00
2023-05-07T03:45:16.408Z,3.25
2023-05-07T03:46:17.985Z,3.25
2023-05-07T03:47:20.484Z,5.00
2023-05-07T03:48:21.921Z,3.00
2023-05-07T03:49:24.378Z,4.50
2023-05-07T03:50:25.789Z,2.00
2023-05-07T03:51:28.193Z,3.00
2023-05-07T03:52:29.739Z,3.00
2023-05-07T03:53:32.157Z,3.00
2023-05-07T03:54:33.565Z,3.00
2023-05-07T03:55:36.560Z,3.00
2023-05-07T03:56:37.967Z,3.00
2023-05-07T03:57:40.393Z,3.00
2023-05-07T03:58:43.173Z,3.00
2023-05-07T03:59:45.570Z,3.00
2023-05-07T04:00:47.005Z,3.00
2023-05-07T04:01:49.638Z,3.00
2023-05-07T04:02:51.416Z,3.00
2023-05-07T04:03:54.147Z,4.50
2023-05-07T04:04:55.699Z,3.50
2023-05-07T04:05:58.096Z,3.00
2023-05-07T04:07:00.267Z,3.00
2023-05-07T04:08:03.117Z,5.00
2023-05-07T04:09:04.602Z,5.00
2023-05-07T04:10:07.324Z,3.00
2023-05-07T04:11:08.729Z,3.50
2023-05-07T04:12:11.117Z,4.50
2023-05-07T04:13:12.736Z,5.00
2023-05-07T04:14:16.581Z,5.25
2023-05-07T04:15:18.017Z,6.00
2023-05-07T04:16:20.432Z,5.00
2023-05-07T04:17:21.884Z,5.00
2023-05-07T04:18:24.426Z,5.50
2023-05-07T04:19:25.886Z,5.00
2023-05-07T04:20:28.286Z,5.00
2023-05-07T04:21:30.931Z,6.00
2023-05-07T04:22:32.336Z,6.00
2023-05-07T04:23:34.839Z,5.00
2023-05-07T04:24:36.349Z,5.00
2023-05-07T04:25:38.781Z,5.00
2023-05-07T04:26:41.233Z,5.00
2023-05-07T04:27:43.623Z,5.75
2023-05-07T04:28:45.070Z,5.00
2023-05-07T04:29:48.888Z,5.50
2023-05-07T04:30:50.620Z,5.00
2023-05-07T04:31:53.037Z,5.00
2023-05-07T04:32:54.586Z,5.00
2023-05-07T04:33:57.088Z,5.00
2023-05-07T04:34:58.494Z,5.00
2023-05-07T04:36:03.681Z,5.00
2023-05-07T04:37:05.092Z,5.75
2023-05-07T04:38:07.511Z,5.00
2023-05-07T04:39:09.182Z,5.75
2023-05-07T04:40:12.098Z,5.50
2023-05-07T04:41:13.724Z,5.50
2023-05-07T04:42:16.710Z,6.00
2023-05-07T04:43:18.152Z,5.50
2023-05-07T04:44:20.695Z,5.00
2023-05-07T04:45:23.563Z,5.75
2023-05-07T04:46:26.026Z,6.00
2023-05-07T04:47:27.583Z,5.75
2023-05-07T04:48:30.006Z,6.00
2023-05-07T04:49:31.448Z,5.75
2023-05-07T04:50:33.840Z,6.00
2023-05-07T04:51:35.301Z,6.00
2023-05-07T04:52:37.692Z,6.00
2023-05-07T04:53:39.109Z,5.50
2023-05-07T04:54:41.557Z,5.50
2023-05-07T04:55:43.046Z,5.25
2023-05-07T04:56:45.538Z,5.00
2023-05-07T04:57:47.203Z,5.50
2023-05-07T04:58:49.583Z,5.00
2023-05-07T04:59:51.256Z,5.50
2023-05-07T05:00:54.991Z,5.50
2023-05-07T05:01:57.306Z,7.00
2023-05-07T05:02:59.812Z,6.50
2023-05-07T05:04:01.646Z,6.00
2023-05-07T05:05:04.616Z,8.00
2023-05-07T05:06:06.503Z,7.00
2023-05-07T05:07:08.872Z,6.75
2023-05-07T05:08:10.428Z,6.00
2023-05-07T05:09:12.824Z,6.00
2023-05-07T05:10:14.413Z,5.75
2023-05-07T05:11:16.898Z,6.00
2023-05-07T05:12:18.294Z,4.75
2023-05-07T05:13:21.348Z,4.75
2023-05-07T05:14:22.804Z,4.75
2023-05-07T05:15:25.408Z,6.50
2023-05-07T05:16:28.264Z,6.00
2023-05-07T05:17:30.768Z,4.75
2023-05-07T05:18:32.185Z,4.75
2023-05-07T05:19:34.573Z,6.00
2023-05-07T05:20:36.181Z,5.00
2023-05-07T05:21:38.594Z,4.75
2023-05-07T05:22:40.056Z,6.00
2023-05-07T05:23:42.471Z,5.50
2023-05-07T05:24:43.874Z,5.25
2023-05-07T05:25:46.475Z,4.75
2023-05-07T05:26:47.883Z,4.75
2023-05-07T05:27:50.535Z,4.75
2023-05-07T05:28:51.940Z,6.00
2023-05-07T05:29:54.333Z,6.25
2023-05-07T05:30:55.768Z,6.00
2023-05-07T05:31:59.716Z,6.00
2023-05-07T05:33:04.359Z,4.75
2023-05-07T05:34:06.820Z,6.00
2023-05-07T05:35:08.888Z,5.75
2023-05-07T05:36:11.552Z,6.00
2023-05-07T05:37:13.033Z,8.00
2023-05-07T05:38:15.454Z,6.00
2023-05-07T05:39:16.968Z,6.75
2023-05-07T05:40:19.413Z,6.75
2023-05-07T05:41:21.645Z,6.75
2023-05-07T05:42:24.026Z,6.00
2023-05-07T05:43:25.504Z,7.00
2023-05-07T05:44:27.918Z,5.75
2023-05-07T05:45:29.325Z,6.00
2023-05-07T05:46:31.785Z,6.00
2023-05-07T05:47:34.653Z,4.75
2023-05-07T05:48:37.057Z,5.25
2023-05-07T05:49:38.477Z,4.75
2023-05-07T05:50:40.857Z,6.00
2023-05-07T05:51:42.402Z,6.00
2023-05-07T05:52:44.780Z,6.00
2023-05-07T05:53:46.218Z,4.75
2023-05-07T05:54:48.610Z,6.00
2023-05-07T05:55:51.239Z,6.00
2023-05-07T05:56:53.680Z,6.25
2023-05-07T05:57:55.219Z,6.75
2023-05-07T05:58:57.636Z,5.00
2023-05-07T05:59:59.088Z,6.25
2023-05-07T06:01:03.541Z,5.75
2023-05-07T06:02:05.112Z,6.75
2023-05-07T06:03:09.008Z,6.00
2023-05-07T06:04:10.516Z,4.75
2023-05-07T06:05:12.989Z,6.00
2023-05-07T06:06:15.500Z,6.50
2023-05-07T06:07:17.968Z,6.00
2023-05-07T06:08:22.699Z,7.00
2023-05-07T06:09:25.142Z,7.00
2023-05-07T06:10:28.189Z,8.25
2023-05-07T06:11:29.674Z,6.50
2023-05-07T06:12:32.087Z,7.75
2023-05-07T06:13:33.899Z,6.50
2023-05-07T06:14:36.346Z,6.00
2023-05-07T06:15:37.754Z,6.75
2023-05-07T06:16:40.314Z,7.50
2023-05-07T06:17:41.884Z,7.25
2023-05-07T06:18:46.303Z,8.00
2023-05-07T06:19:47.802Z,7.25
2023-05-07T06:20:50.250Z,7.00
2023-05-07T06:21:51.688Z,7.00
2023-05-07T06:22:54.201Z,7.00
2023-05-07T06:23:55.930Z,7.00
2023-05-07T06:24:58.361Z,7.00
2023-05-07T06:25:59.785Z,8.00
2023-05-07T06:27:02.174Z,8.00
2023-05-07T06:28:03.825Z,7.00
2023-05-07T06:29:06.224Z,7.75
2023-05-07T06:30:08.320Z,7.00
2023-05-07T06:31:14.410Z,7.00
2023-05-07T06:32:25.935Z,8.00
2023-05-07T06:33:27.444Z,7.50
2023-05-07T06:34:31.201Z,7.25
2023-05-07T06:35:32.627Z,8.00
2023-05-07T06:36:35.021Z,7.75
2023-05-07T06:37:39.182Z,7.00
2023-05-07T06:38:41.690Z,7.50
2023-05-07T06:39:43.116Z,9.00
2023-05-07T06:40:45.512Z,7.25
2023-05-07T06:41:47.156Z,9.50
2023-05-07T06:42:49.547Z,7.00
2023-05-07T06:43:51.241Z,8.50
2023-05-07T06:44:53.660Z,8.00
2023-05-07T06:45:55.208Z,8.00
2023-05-07T06:46:57.635Z,8.00
2023-05-07T06:47:59.085Z,7.00
2023-05-07T06:49:01.626Z,9.00
2023-05-07T06:50:04.590Z,7.00
2023-05-07T06:51:07.060Z,7.75
2023-05-07T06:52:08.508Z,9.00
2023-05-07T06:53:10.925Z,8.00
2023-05-07T06:54:12.533Z,8.50
2023-05-07T06:55:14.989Z,7.50
2023-05-07T06:56:16.546Z,8.00
2023-05-07T06:57:18.946Z,8.50
2023-05-07T06:58:20.393Z,8.75
2023-05-07T06:59:22.958Z,8.25
2023-05-07T07:00:24.501Z,8.25
2023-05-07T07:01:26.903Z,8.25
2023-05-07T07:02:28.410Z,8.00
2023-05-07T07:03:30.848Z,8.00
2023-05-07T07:04:32.422Z,9.25
2023-05-07T07:05:36.194Z,9.00
2023-05-07T07:06:37.636Z,9.00
2023-05-07T07:07:40.051Z,9.00
2023-05-07T07:08:41.716Z,8.75
2023-05-07T07:09:44.196Z,8.00
2023-05-07T07:10:47.776Z,9.00
2023-05-07T07:11:50.179Z,8.50
2023-05-07T07:12:51.612Z,8.75
2023-05-07T07:13:55.285Z,7.75
2023-05-07T07:14:56.764Z,8.00
2023-05-07T07:15:59.245Z,8.00
2023-05-07T07:17:00.745Z,9.00
2023-05-07T07:18:03.198Z,9.00
2023-05-07T07:19:04.640Z,9.00
2023-05-07T07:20:07.861Z,8.50
2023-05-07T07:21:10.811Z,8.25
2023-05-07T07:22:13.409Z,8.75
2023-05-07T07:23:18.018Z,9.00
2023-05-07T07:24:22.240Z,8.50
2023-05-07T07:25:24.429Z,8.25
2023-05-07T07:26:26.894Z,9.50
2023-05-07T07:27:28.525Z,9.00
2023-05-07T07:28:31.261Z,9.00
2023-05-07T07:29:33.740Z,8.00
2023-05-07T07:30:35.239Z,7.25
2023-05-07T07:31:37.691Z,9.00
2023-05-07T07:32:39.230Z,8.50
2023-05-07T07:33:41.674Z,9.00
2023-05-07T07:34:43.088Z,8.25
2023-05-07T07:35:45.558Z,9.50
2023-05-07T07:36:48.308Z,9.00
2023-05-07T07:37:51.503Z,8.75
2023-05-07T07:38:53.907Z,9.00
2023-05-07T07:39:55.859Z,9.00
2023-05-07T07:40:58.311Z,10.75
2023-05-07T07:41:59.753Z,7.75
2023-05-07T07:43:02.341Z,9.00
2023-05-07T07:44:04.766Z,8.00
2023-05-07T07:45:07.899Z,8.50
2023-05-07T07:46:09.523Z,8.25
2023-05-07T07:47:12.083Z,8.00
2023-05-07T07:48:13.605Z,8.50
2023-05-07T07:49:16.136Z,8.00
2023-05-07T07:50:28.636Z,8.50
2023-05-07T07:51:38.575Z,8.75
2023-05-07T07:52:41.814Z,9.00
2023-05-07T07:53:44.358Z,8.00
2023-05-07T07:54:45.814Z,9.00
2023-05-07T07:55:48.382Z,9.00
2023-05-07T07:56:50.985Z,8.75
2023-05-07T07:57:53.638Z,8.00
2023-05-07T07:58:55.257Z,8.00
2023-05-07T07:59:57.747Z,9.00
2023-05-07T08:01:00.334Z,9.25
2023-05-07T08:02:02.846Z,8.00
2023-05-07T08:03:04.577Z,9.00
2023-05-07T08:04:07.685Z,9.00
2023-05-07T08:05:09.507Z,8.00
2023-05-07T08:06:12.030Z,7.25
2023-05-07T08:07:13.450Z,9.00
2023-05-07T08:08:17.732Z,8.75
2023-05-07T08:09:19.393Z,8.75
2023-05-07T08:10:22.971Z,7.25
2023-05-07T08:11:24.572Z,8.25
2023-05-07T08:12:27.177Z,8.00
2023-05-07T08:13:29.052Z,10.00
2023-05-07T08:14:31.639Z,8.00
2023-05-07T08:15:33.286Z,9.00
2023-05-07T08:16:36.182Z,8.75
2023-05-07T08:17:37.828Z,9.00
2023-05-07T08:18:40.454Z,9.00
2023-05-07T08:19:41.893Z,9.00
2023-05-07T08:20:47.556Z,8.00
2023-05-07T08:21:49.081Z,9.50
2023-05-07T08:22:51.568Z,9.50
2023-05-07T08:23:54.410Z,10.00
2023-05-07T08:24:56.942Z,8.50
2023-05-07T08:25:58.524Z,8.25
2023-05-07T08:27:01.253Z,7.50
2023-05-07T08:28:04.160Z,7.00
2023-05-07T08:29:06.627Z,8.25
2023-05-07T08:30:08.900Z,8.25
2023-05-07T08:31:11.489Z,8.75
2023-05-07T08:32:13.025Z,8.00
2023-05-07T08:33:15.511Z,8.00
2023-05-07T08:34:17.074Z,9.75
2023-05-07T08:35:19.541Z,8.00
2023-05-07T08:36:21.333Z,8.50
2023-05-07T08:37:23.809Z,8.00
2023-05-07T08:38:25.395Z,10.25
2023-05-07T08:39:29.321Z,9.00
2023-05-07T08:40:30.728Z,8.25
2023-05-07T08:41:33.392Z,9.75
2023-05-07T08:42:36.553Z,8.75
2023-05-07T08:43:39.051Z,8.25
2023-05-07T08:44:41.715Z,8.50
2023-05-07T08:45:44.423Z,8.00
2023-05-07T08:46:47.728Z,8.00
2023-05-07T08:47:52.066Z,8.00
2023-05-07T08:48:54.006Z,9.00
2023-05-07T08:49:56.517Z,8.00
2023-05-07T08:50:58.632Z,9.00
2023-05-07T08:52:01.060Z,8.75
2023-05-07T08:53:03.675Z,9.00
2023-05-07T08:54:06.865Z,10.00
2023-05-07T08:55:10.475Z,9.00
2023-05-07T08:56:13.811Z,8.00
2023-05-07T08:57:16.237Z,8.00
2023-05-07T08:58:18.182Z,9.00
2023-05-07T08:59:20.603Z,9.00
2023-05-07T09:00:22.159Z,9.50
2023-05-07T09:01:24.633Z,9.00
2023-05-07T09:02:26.390Z,9.00
2023-05-07T09:03:29.062Z,7.00
2023-05-07T09:04:32.669Z,7.00
2023-05-07T09:05:35.132Z,9.25
2023-05-07T09:06:37.854Z,9.00
2023-05-07T09:07:40.282Z,9.00
2023-05-07T09:08:41.926Z,8.50
2023-05-07T09:09:45.846Z,9.00
2023-05-07T09:10:48.630Z,8.50
2023-05-07T09:11:51.789Z,9.25
2023-05-07T09:12:53.344Z,10.00
2023-05-07T09:13:56.064Z,8.50
2023-05-07T09:14:57.509Z,9.00
2023-05-07T09:15:59.912Z,9.50
2023-05-07T09:17:01.378Z,10.50
2023-05-07T09:18:03.894Z,10.00
2023-05-07T09:19:05.412Z,9.25
2023-05-07T09:20:10.684Z,9.50
2023-05-07T09:21:12.731Z,10.00
2023-05-07T09:22:15.642Z,9.50
2023-05-07T09:23:17.085Z,9.00
2023-05-07T09:24:19.546Z,10.50
2023-05-07T09:25:28.804Z,10.75
2023-05-07T09:26:34.155Z,10.25
2023-05-07T09:27:35.672Z,9.00
2023-05-07T09:28:40.370Z,10.50
2023-05-07T09:29:45.088Z,9.00
2023-05-07T09:30:46.865Z,8.50
2023-05-07T09:31:49.631Z,9.50
2023-05-07T09:32:52.945Z,10.50
2023-05-07T09:33:54.485Z,9.75
2023-05-07T09:34:56.915Z,10.25
2023-05-07T09:35:58.444Z,10.00
2023-05-07T09:37:01.028Z,9.25
2023-05-07T09:38:04.436Z,10.50
2023-05-07T09:39:07.184Z,11.00
2023-05-07T09:40:10.425Z,10.00
2023-05-07T09:41:13.820Z,9.00
2023-05-07T09:42:17.994Z,8.25
2023-05-07T09:43:19.404Z,9.75
2023-05-07T09:44:22.132Z,10.00
2023-05-07T09:45:25.414Z,10.00
2023-05-07T09:46:30.129Z,8.75
2023-05-07T09:47:33.164Z,9.50
2023-05-07T09:48:36.555Z,9.75
2023-05-07T09:49:39.573Z,8.25
2023-05-07T09:50:41.598Z,9.50
2023-05-07T09:51:45.470Z,8.50
2023-05-07T09:52:47.905Z,8.00
2023-05-07T09:53:49.379Z,7.75
2023-05-07T09:54:51.911Z,8.75
2023-05-07T09:55:53.436Z,7.25
2023-05-07T09:56:55.914Z,8.50
2023-05-07T09:58:00.705Z,8.00
2023-05-07T09:59:02.664Z,8.00
2023-05-07T10:00:06.708Z,9.00
2023-05-07T10:01:08.319Z,6.75
2023-05-07T10:02:11.189Z,9.00
2023-05-07T10:03:13.886Z,8.00
2023-05-07T10:04:19.964Z,9.00
2023-05-07T10:05:21.496Z,9.00
2023-05-07T10:06:24.009Z,8.00
2023-05-07T10:07:26.248Z,8.00
2023-05-07T10:08:28.649Z,7.00
2023-05-07T10:09:31.848Z,7.00
2023-05-07T10:10:33.694Z,8.50
2023-05-07T10:11:36.349Z,6.50
2023-05-07T10:12:39.961Z,7.00
2023-05-07T10:13:43.953Z,6.00
2023-05-07T10:14:45.664Z,8.50
2023-05-07T10:15:48.070Z,7.75
2023-05-07T10:16:50.650Z,7.00
2023-05-07T10:17:52.141Z,6.00
2023-05-07T10:18:54.864Z,6.00
2023-05-07T10:19:56.287Z,7.00
2023-05-07T10:20:59.203Z,7.50
2023-05-07T10:22:01.467Z,7.50
2023-05-07T10:23:03.912Z,7.75
2023-05-07T10:24:09.434Z,7.50
2023-05-07T10:25:19.083Z,6.00
2023-05-07T10:26:21.552Z,6.00
2023-05-07T10:27:24.069Z,6.75
2023-05-07T10:28:25.564Z,5.75
2023-05-07T10:29:35.812Z,6.00
2023-05-07T10:30:40.813Z,6.00
2023-05-07T10:31:49.734Z,6.00
2023-05-07T10:32:52.864Z,6.00
2023-05-07T10:33:54.371Z,4.75
2023-05-07T10:34:57.073Z,5.25
2023-05-07T10:35:58.878Z,5.00
2023-05-07T10:37:01.340Z,6.25
2023-05-07T10:38:02.946Z,5.25
2023-05-07T10:39:05.441Z,7.00
2023-05-07T10:40:08.536Z,8.00
2023-05-07T10:41:10.001Z,8.00
2023-05-07T10:42:12.618Z,7.00
2023-05-07T10:43:14.262Z,8.00
2023-05-07T10:44:26.789Z,7.75
2023-05-07T10:45:29.607Z,7.00
2023-05-07T10:46:34.065Z,6.25
2023-05-07T10:47:35.541Z,5.00
2023-05-07T10:48:39.561Z,7.00
2023-05-07T10:50:09.025Z,6.00
2023-05-07T10:51:19.845Z,7.00
2023-05-07T10:52:22.674Z,9.00
2023-05-07T10:53:29.280Z,8.00
2023-05-07T10:54:31.806Z,8.00
2023-05-07T10:55:33.324Z,6.50
2023-05-07T10:56:35.748Z,7.00
2023-05-07T10:57:37.171Z,8.00
2023-05-07T10:58:39.576Z,7.00
2023-05-07T10:59:44.056Z,7.00
2023-05-07T11:00:47.873Z,7.00
2023-05-07T11:01:53.214Z,6.25
2023-05-07T11:03:08.879Z,6.00
2023-05-07T11:04:13.787Z,5.00
2023-05-07T11:05:22.986Z,7.00
2023-05-07T11:06:24.539Z,7.00
2023-05-07T11:07:30.294Z,7.00
2023-05-07T11:08:44.331Z,7.50
2023-05-07T11:09:55.804Z,8.00
2023-05-07T11:10:59.853Z,6.00
2023-05-07T11:12:01.579Z,7.25
2023-05-07T11:13:05.374Z,7.50
2023-05-07T11:14:06.957Z,8.00
2023-05-07T11:15:09.968Z,8.00
2023-05-07T11:16:21.016Z,7.50
2023-05-07T11:17:22.555Z,7.00
2023-05-07T11:18:24.975Z,6.00
2023-05-07T11:19:41.314Z,6.00
2023-05-07T11:20:48.732Z,7.00
2023-05-07T11:21:51.559Z,7.75
2023-05-07T11:22:56.091Z,4.75
2023-05-07T11:24:02.577Z,5.00
2023-05-07T11:25:04.183Z,5.00
2023-05-07T11:26:06.779Z,6.50
2023-05-07T11:27:09.233Z,6.00
2023-05-07T11:28:11.408Z,6.00
2023-05-07T11:29:14.287Z,5.50
2023-05-07T11:30:17.972Z,8.00
2023-05-07T11:31:24.393Z,8.25
2023-05-07T11:32:25.991Z,7.25
2023-05-07T11:33:28.408Z,8.00
2023-05-07T11:34:30.885Z,7.75
2023-05-07T11:35:33.389Z,6.50
2023-05-07T11:36:37.438Z,7.00
2023-05-07T11:37:38.919Z,7.00
2023-05-07T11:38:41.354Z,8.25
2023-05-07T11:39:43.762Z,8.00
2023-05-07T11:40:51.768Z,8.00
2023-05-07T11:41:54.215Z,7.50
2023-05-07T11:42:55.674Z,8.00
2023-05-07T11:43:58.600Z,8.00
2023-05-07T11:45:00.980Z,8.00
2023-05-07T11:46:06.192Z,8.00
2023-05-07T11:47:10.043Z,9.50
2023-05-07T11:48:11.929Z,9.00
2023-05-07T11:49:14.358Z,8.00
2023-05-07T11:50:16.932Z,8.50
2023-05-07T11:51:21.869Z,8.25
2023-05-07T11:52:24.597Z,8.00
2023-05-07T11:53:26.177Z,7.50
2023-05-07T11:54:28.554Z,8.00
2023-05-07T11:55:30.052Z,8.25
2023-05-07T11:56:33.810Z,8.00
2023-05-07T11:57:35.256Z,9.25
2023-05-07T11:58:37.770Z,8.00
2023-05-07T11:59:39.567Z,9.50
2023-05-07T12:00:42.414Z,8.25
2023-05-07T12:01:47.245Z,8.50
2023-05-07T12:02:51.175Z,8.75
2023-05-07T12:03:52.940Z,8.00
2023-05-07T12:04:55.858Z,9.00
2023-05-07T12:05:57.348Z,8.00
2023-05-07T12:06:59.729Z,9.00
2023-05-07T12:08:01.129Z,9.00
2023-05-07T12:09:03.675Z,8.75
2023-05-07T12:10:05.610Z,9.75
2023-05-07T12:11:12.396Z,10.00
2023-05-07T12:12:16.405Z,10.00
2023-05-07T12:13:18.924Z,9.00
2023-05-07T12:14:21.444Z,10.00
2023-05-07T12:15:23.569Z,8.75
2023-05-07T12:16:26.190Z,9.50
2023-05-07T12:17:27.767Z,9.25
2023-05-07T12:18:31.969Z,9.75
2023-05-07T12:19:34.507Z,9.75
2023-05-07T12:20:36.039Z,8.75
2023-05-07T12:21:38.448Z,8.75
2023-05-07T12:22:39.899Z,9.50
2023-05-07T12:23:42.283Z,9.00
2023-05-07T12:24:47.093Z,8.00
2023-05-07T12:25:49.565Z,8.75
2023-05-07T12:26:51.968Z,8.50
2023-05-07T12:27:53.461Z,9.50
2023-05-07T12:28:55.882Z,8.00
2023-05-07T12:29:58.319Z,10.75
2023-05-07T12:31:00.745Z,10.75
2023-05-07T12:32:02.880Z,8.00
2023-05-07T12:33:06.718Z,9.50
2023-05-07T12:34:09.528Z,9.00
2023-05-07T12:35:12.237Z,8.25
2023-05-07T12:36:14.930Z,9.25
2023-05-07T12:37:16.436Z,9.00
2023-05-07T12:38:19.198Z,8.75
2023-05-07T12:39:21.861Z,8.50
2023-05-07T12:40:23.449Z,9.75
2023-05-07T12:41:30.129Z,8.00
2023-05-07T12:42:33.560Z,8.00
2023-05-07T12:43:35.991Z,8.00
2023-05-07T12:44:37.539Z,9.00
2023-05-07T12:45:40.735Z,8.75
2023-05-07T12:46:43.131Z,7.00
2023-05-07T12:47:44.833Z,9.00
2023-05-07T12:48:47.600Z,9.00
2023-05-07T12:49:50.353Z,8.00
2023-05-07T12:50:52.987Z,9.75
2023-05-07T12:51:55.480Z,8.25
2023-05-07T12:52:56.914Z,8.50
2023-05-07T12:53:59.355Z,9.25
2023-05-07T12:55:05.274Z,8.50
2023-05-07T12:56:07.938Z,9.00
2023-05-07T12:57:09.735Z,9.00
2023-05-07T12:58:18.675Z,10.75
2023-05-07T12:59:21.138Z,8.75
2023-05-07T13:00:33.756Z,8.00
2023-05-07T13:01:36.334Z,8.00
2023-05-07T13:02:38.875Z,8.25
2023-05-07T13:03:41.580Z,8.00
2023-05-07T13:04:43.103Z,8.50
2023-05-07T13:05:46.878Z,8.00
2023-05-07T13:06:49.442Z,8.00
2023-05-07T13:07:54.042Z,8.00
2023-05-07T13:08:56.661Z,8.25
2023-05-07T13:09:58.088Z,8.00
2023-05-07T13:11:00.923Z,8.00
2023-05-07T13:12:02.634Z,8.75
2023-05-07T13:13:05.727Z,7.75
2023-05-07T13:14:07.274Z,9.00
2023-05-07T13:15:10.219Z,9.00
2023-05-07T13:16:13.356Z,10.25
2023-05-07T13:17:14.891Z,10.25
2023-05-07T13:18:17.429Z,10.00
2023-05-07T13:19:18.986Z,11.75
2023-05-07T13:20:22.984Z,9.75
2023-05-07T13:21:27.841Z,10.00
2023-05-07T13:22:29.442Z,13.00
2023-05-07T13:23:31.844Z,15.00
2023-05-07T13:24:33.328Z,13.25
2023-05-07T13:25:37.147Z,10.50
2023-05-07T13:26:40.008Z,10.75
2023-05-07T13:27:42.531Z,8.25
2023-05-07T13:28:44.580Z,7.50
2023-05-07T13:29:47.000Z,9.50
2023-05-07T13:30:48.456Z,9.50
2023-05-07T13:31:51.135Z,9.00
2023-05-07T13:32:53.402Z,9.00
2023-05-07T13:33:57.216Z,9.25
2023-05-07T13:34:58.711Z,9.50
2023-05-07T13:36:01.689Z,9.00
2023-05-07T13:37:04.495Z,8.00
2023-05-07T13:38:07.010Z,8.25
2023-05-07T13:39:08.532Z,9.00
2023-05-07T13:40:11.796Z,8.00
2023-05-07T13:41:14.102Z,8.00
2023-05-07T13:42:16.623Z,9.00
2023-05-07T13:43:19.741Z,8.00
2023-05-07T13:44:22.152Z,8.00
2023-05-07T13:45:26.731Z,8.00
2023-05-07T13:46:30.784Z,8.75
2023-05-07T13:47:32.405Z,8.00
2023-05-07T13:48:34.983Z,8.00
2023-05-07T13:49:36.412Z,8.75
2023-05-07T13:50:38.840Z,10.75
2023-05-07T13:51:40.274Z,7.50
2023-05-07T13:52:47.275Z,9.25
2023-05-07T13:53:48.815Z,8.25